Time;durP1;ratioP1;P1;durP2;ratioP2;P2;SDS_P1;SDS_P2;PMS_P1;PMS_P2;Temp;Humidity;BMP_temperature;BMP_pressure;BME280_temperature;BME280_humidity;BME280_pressure;Samples;Min_cycle;Max_cycle;Signal;HPM_P1;HPM_P2
2022/07/05 00:01:45;;;;;;;4.80;3.77;;;;;;;14.84;79.25;101959.63;5054288;28;20392;-85
2022/07/05 00:04:10;;;;;;;6.17;4.17;;;;;;;14.83;79.84;101961.50;5054421;28;20539;-85
2022/07/05 00:06:36;;;;;;;4.43;3.77;;;;;;;14.80;78.01;101961.09;5054322;28;20059;-85
2022/07/05 00:09:01;;;;;;;8.07;4.40;;;;;;;14.77;77.71;101962.38;5054264;28;20400;-85
2022/07/05 00:11:27;;;;;;;5.77;4.20;;;;;;;14.68;77.93;101963.66;5054339;28;20374;-85
2022/07/05 00:13:54;;;;;;;6.13;4.53;;;;;;;14.67;78.04;101954.59;5054033;28;20037;-85
2022/07/05 00:16:20;;;;;;;6.88;4.68;;;;;;;14.63;78.02;101949.81;5055479;28;20127;-85
2022/07/05 00:18:45;;;;;;;5.60;4.53;;;;;;;14.60;78.27;101948.34;5054670;28;20127;-85
2022/07/05 00:21:11;;;;;;;8.07;4.88;;;;;;;14.57;78.76;101956.94;5054111;28;20036;-85
2022/07/05 00:23:36;;;;;;;5.53;4.53;;;;;;;14.57;81.21;101957.78;5055306;28;20033;-85
2022/07/05 00:26:01;;;;;;;6.20;4.67;;;;;;;14.52;81.83;101954.84;5054372;28;20039;-85
2022/07/05 00:28:27;;;;;;;7.17;4.70;;;;;;;14.48;83.11;101953.63;5053859;28;20029;-85
2022/07/05 00:30:52;;;;;;;7.77;4.60;;;;;;;14.45;83.61;101958.66;5055120;28;20037;-85
2022/07/05 00:33:18;;;;;;;6.10;4.32;;;;;;;14.37;83.41;101949.63;5055125;28;20112;-85
2022/07/05 00:35:43;;;;;;;6.03;4.63;;;;;;;14.36;83.90;101950.72;5053897;28;20032;-84
2022/07/05 00:38:09;;;;;;;5.47;4.30;;;;;;;14.31;83.80;101946.94;5052638;28;20079;-85
2022/07/05 00:40:34;;;;;;;6.83;4.00;;;;;;;14.30;83.39;101958.91;5054190;28;20059;-85
2022/07/05 00:42:59;;;;;;;6.97;4.15;;;;;;;14.24;83.90;101957.84;5053620;28;20466;-85
2022/07/05 00:45:25;;;;;;;7.10;3.87;;;;;;;14.23;84.08;101955.34;5036938;28;20086;-85
2022/07/05 00:47:50;;;;;;;5.07;3.97;;;;;;;14.17;84.74;101949.69;5036579;28;20036;-85
2022/07/05 00:50:16;;;;;;;7.20;3.77;;;;;;;14.13;84.18;101944.84;5086845;28;20069;-85
2022/07/05 00:52:41;;;;;;;6.47;4.23;;;;;;;14.06;82.34;101944.03;5036916;28;20025;-85
2022/07/05 00:55:07;;;;;;;5.00;3.83;;;;;;;14.00;83.31;101943.00;5036838;28;20041;-85
2022/07/05 00:57:34;;;;;;;7.32;3.50;;;;;;;14.01;83.06;101941.94;5053340;28;20025;-85
2022/07/05 00:59:59;;;;;;;5.97;3.80;;;;;;;13.95;82.72;101948.25;5053060;28;20053;-85
2022/07/05 01:02:24;;;;;;;6.88;3.70;;;;;;;13.92;83.77;101943.22;5053336;28;20060;-85
2022/07/05 01:04:51;;;;;;;8.23;4.00;;;;;;;13.92;85.24;101949.53;5054553;28;20025;-85
2022/07/05 01:07:20;;;;;;;6.68;4.40;;;;;;;13.85;84.78;101952.25;5053338;28;20065;-85
2022/07/05 01:09:45;;;;;;;7.53;4.07;;;;;;;13.90;85.01;101957.06;5053196;28;20167;-85
2022/07/05 01:12:11;;;;;;;6.53;3.97;;;;;;;13.88;85.98;101952.84;5053143;28;20110;-84
2022/07/05 01:14:37;;;;;;;5.43;4.03;;;;;;;13.81;86.01;101953.69;5036135;28;20033;-85
2022/07/05 01:17:03;;;;;;;5.78;4.35;;;;;;;13.79;86.42;101954.94;5052945;28;20041;-86
2022/07/05 01:19:28;;;;;;;5.93;4.00;;;;;;;13.75;86.52;101949.09;5054461;28;20358;-85
2022/07/05 01:21:54;;;;;;;10.23;4.57;;;;;;;13.73;86.82;101953.94;5036260;28;20032;-85
2022/07/05 01:24:20;;;;;;;5.73;4.67;;;;;;;13.71;87.06;101957.91;5036925;28;20032;-84
2022/07/05 01:26:48;;;;;;;6.75;4.40;;;;;;;13.70;86.66;101959.81;5036077;28;20040;-85
2022/07/05 01:29:13;;;;;;;5.05;4.32;;;;;;;13.67;86.46;101962.91;5053564;28;20037;-85
2022/07/05 01:31:40;;;;;;;5.50;3.83;;;;;;;13.63;86.64;101958.97;5036185;28;20037;-85
2022/07/05 01:34:07;;;;;;;6.03;4.18;;;;;;;13.60;87.56;101954.75;5052894;28;20029;-85
2022/07/05 01:36:35;;;;;;;5.53;4.57;;;;;;;13.56;87.87;101956.22;5052709;28;20033;-85
2022/07/05 01:39:04;;;;;;;6.72;4.20;;;;;;;13.54;88.24;101954.72;5053592;28;20036;-85
2022/07/05 01:41:29;;;;;;;7.45;4.78;;;;;;;13.49;88.59;101956.22;5052328;28;20029;-84
2022/07/05 01:43:55;;;;;;;7.83;4.60;;;;;;;13.45;88.38;101951.38;5036134;28;20029;-85
2022/07/05 01:46:22;;;;;;;5.75;4.72;;;;;;;13.43;87.89;101958.91;5020362;28;20041;-85
2022/07/05 01:48:51;;;;;;;5.20;4.60;;;;;;;13.39;88.66;101950.34;5052169;28;20051;-85
2022/07/05 01:51:22;;;;;;;6.85;4.70;;;;;;;13.39;90.92;101953.06;5052220;28;20064;-84
2022/07/05 01:53:51;;;;;;;7.88;4.85;;;;;;;13.38;90.40;101956.00;5052191;28;20072;-85
2022/07/05 01:56:17;;;;;;;7.65;5.65;;;;;;;13.28;88.43;101956.34;5052611;28;20103;-85
2022/07/05 01:58:44;;;;;;;7.10;5.17;;;;;;;13.25;87.60;101960.31;5035479;28;20052;-85
2022/07/05 02:01:12;;;;;;;7.43;5.00;;;;;;;13.16;87.13;101954.22;5052129;28;20044;-85
2022/07/05 02:03:39;;;;;;;7.40;5.20;;;;;;;13.15;87.51;101948.97;5035854;28;20048;-85
2022/07/05 02:06:06;;;;;;;8.52;5.38;;;;;;;13.17;87.65;101952.34;5052501;28;20376;-84
2022/07/05 02:08:31;;;;;;;7.07;4.77;;;;;;;13.10;86.67;101940.59;5052649;28;20414;-85
2022/07/05 02:10:57;;;;;;;8.05;5.47;;;;;;;12.98;86.51;101945.78;5052343;28;20033;-84
2022/07/05 02:13:23;;;;;;;9.17;5.17;;;;;;;12.92;86.88;101947.44;5053594;28;20036;-84
2022/07/05 02:15:49;;;;;;;9.03;4.80;;;;;;;12.86;86.14;101941.97;5035372;28;20282;-84
2022/07/05 02:18:14;;;;;;;9.15;4.65;;;;;;;12.84;86.88;101952.22;5051740;28;20033;-84
2022/07/05 02:20:40;;;;;;;7.10;4.70;;;;;;;12.79;87.32;101945.50;5035624;28;20037;-84
2022/07/05 02:23:07;;;;;;;7.32;4.82;;;;;;;12.73;86.75;101943.59;5052306;28;20029;-85
2022/07/05 02:25:32;;;;;;;8.43;5.05;;;;;;;12.67;86.67;101938.97;5053422;28;20473;-85
2022/07/05 02:27:58;;;;;;;8.87;4.97;;;;;;;12.67;87.36;101949.88;5052109;28;20051;-84
2022/07/05 02:30:24;;;;;;;7.70;5.87;;;;;;;12.64;86.91;101940.22;5051852;28;20082;-85
2022/07/05 02:32:49;;;;;;;7.32;6.03;;;;;;;12.68;87.56;101946.09;5035520;28;20196;-85
2022/07/05 02:35:15;;;;;;;9.23;6.20;;;;;;;12.67;88.89;101949.88;5035681;28;20033;-85
2022/07/05 02:37:41;;;;;;;7.95;5.78;;;;;;;12.68;88.27;101948.84;5052999;28;20179;-85
2022/07/05 02:40:08;;;;;;;9.37;6.00;;;;;;;12.70;88.91;101948.63;5035454;28;20040;-85
2022/07/05 02:42:34;;;;;;;9.98;5.93;;;;;;;12.66;87.14;101955.50;5051888;28;20119;-85
2022/07/05 02:44:59;;;;;;;8.80;5.80;;;;;;;12.56;86.49;101942.25;5052041;28;20404;-84
2022/07/05 02:47:24;;;;;;;7.57;5.80;;;;;;;12.54;86.98;101952.53;5052583;28;20033;-85
2022/07/05 02:49:53;;;;;;;9.07;6.10;;;;;;;12.51;87.37;101955.66;5035457;28;20040;-85
2022/07/05 02:52:18;;;;;;;8.27;6.53;;;;;;;12.49;87.45;101952.28;5052385;28;20024;-85
2022/07/05 02:54:43;;;;;;;9.63;6.60;;;;;;;12.44;87.89;101958.31;5035475;28;20036;-84
2022/07/05 02:57:09;;;;;;;8.63;6.40;;;;;;;12.46;88.36;101962.53;5052889;28;20094;-85
2022/07/05 02:59:34;;;;;;;9.23;6.87;;;;;;;12.50;88.32;101964.84;5034956;28;20531;-84
2022/07/05 03:01:59;;;;;;;8.90;6.63;;;;;;;12.45;87.85;101965.44;5053037;28;20037;-84
2022/07/05 03:04:25;;;;;;;7.87;6.17;;;;;;;12.50;89.72;101964.84;5038906;28;20033;-84
2022/07/05 03:06:50;;;;;;;10.40;6.70;;;;;;;12.53;89.83;101959.00;5038842;28;20120;-84
2022/07/05 03:09:16;;;;;;;8.50;6.40;;;;;;;12.54;89.45;101963.41;5055750;28;20040;-84
2022/07/05 03:11:41;;;;;;;9.67;5.90;;;;;;;12.54;88.64;101966.97;5039145;28;20445;-85
2022/07/05 03:14:07;;;;;;;10.00;6.43;;;;;;;12.50;88.36;101970.28;5055181;28;20025;-84
2022/07/05 03:16:32;;;;;;;8.37;6.33;;;;;;;12.44;88.21;101978.22;5072075;28;20385;-84
2022/07/05 03:18:57;;;;;;;9.07;6.28;;;;;;;12.42;88.03;101980.31;5054835;28;20377;-84
2022/07/05 03:21:23;;;;;;;8.63;6.67;;;;;;;12.38;89.42;101976.28;5055302;28;20377;-84
2022/07/05 03:23:48;;;;;;;10.60;6.90;;;;;;;12.37;89.43;101977.34;5055195;28;20044;-85
2022/07/05 03:26:14;;;;;;;8.63;6.83;;;;;;;12.36;90.16;101975.66;5038520;28;20040;-85
2022/07/05 03:28:39;;;;;;;11.15;7.07;;;;;;;12.36;90.20;101991.16;5055612;28;20422;-84
2022/07/05 03:31:05;;;;;;;8.93;6.90;;;;;;;12.36;90.13;101985.72;5054960;28;20453;-85
2022/07/05 03:33:30;;;;;;;11.17;6.67;;;;;;;12.38;89.74;101980.91;5055026;28;20083;-84
2022/07/05 03:35:57;;;;;;;9.52;6.63;;;;;;;12.36;91.07;101989.28;5054965;28;20366;-85
2022/07/05 03:38:22;;;;;;;10.88;7.05;;;;;;;12.34;90.11;101987.78;5088462;28;20033;-85
2022/07/05 03:40:47;;;;;;;8.43;6.50;;;;;;;12.35;89.87;101989.47;5054803;28;20079;-84
2022/07/05 03:43:13;;;;;;;10.10;7.03;;;;;;;12.35;90.12;101987.56;5038249;28;20082;-84
2022/07/05 03:45:38;;;;;;;9.10;6.87;;;;;;;12.40;89.23;101986.97;5054606;28;20420;-85
2022/07/05 03:48:04;;;;;;;10.33;6.73;;;;;;;12.48;89.35;101991.44;5054390;28;20431;-85
2022/07/05 03:50:29;;;;;;;8.32;6.57;;;;;;;12.54;89.06;101987.91;5054680;28;20469;-84
2022/07/05 03:52:55;;;;;;;9.47;6.50;;;;;;;12.61;89.32;101997.78;5054340;28;20033;-85
2022/07/05 03:55:20;;;;;;;10.23;6.73;;;;;;;12.63;88.81;101995.69;5038088;28;20029;-84
2022/07/05 03:57:47;;;;;;;11.45;6.68;;;;;;;12.72;88.34;102003.72;5038265;28;20097;-85
2022/07/05 04:01:19;;;;;;;11.45;6.85;;;;;;;12.82;87.18;102006.91;5159259;27;20867;-85
2022/07/05 04:03:44;;;;;;;21.83;6.67;;;;;;;12.86;87.19;102001.88;5129668;27;20054;-85
2022/07/05 04:06:11;;;;;;;14.67;7.33;;;;;;;12.91;86.81;102002.13;5099045;28;20055;-85
2022/07/05 04:08:36;;;;;;;14.25;6.90;;;;;;;12.95;87.41;102006.97;5131039;28;20471;-85
2022/07/05 04:11:03;;;;;;;15.23;7.60;;;;;;;12.99;87.09;102008.25;5130685;28;20073;-85
2022/07/05 04:13:28;;;;;;;14.63;8.07;;;;;;;13.09;86.15;102010.56;5132320;27;20023;-85
2022/07/05 04:15:55;;;;;;;17.17;6.70;;;;;;;13.20;85.58;102008.31;5113666;28;20032;-85
2022/07/05 04:18:21;;;;;;;12.98;7.32;;;;;;;13.28;86.03;102011.69;5130128;28;20031;-85
2022/07/05 04:20:47;;;;;;;11.57;7.40;;;;;;;13.40;85.88;102016.59;5130672;28;20053;-85
2022/07/05 04:23:12;;;;;;;15.67;6.67;;;;;;;13.50;84.96;102009.69;5113542;28;20439;-85
2022/07/05 04:25:37;;;;;;;9.77;7.00;;;;;;;13.57;84.73;102015.16;5113050;28;20390;-85
2022/07/05 04:28:04;;;;;;;14.93;7.93;;;;;;;13.64;84.42;102013.28;5130489;28;20072;-85
2022/07/05 04:30:29;;;;;;;11.77;7.80;;;;;;;13.73;85.26;102008.47;5130392;28;20455;-85
2022/07/05 04:32:55;;;;;;;12.23;8.40;;;;;;;13.80;85.30;102017.50;5130279;28;20038;-85
2022/07/05 04:35:21;;;;;;;11.15;8.02;;;;;;;13.92;84.20;102008.69;5113955;28;20039;-85
2022/07/05 04:37:46;;;;;;;16.23;8.10;;;;;;;14.01;84.92;102007.41;5130447;27;20058;-85
2022/07/05 04:40:14;;;;;;;12.83;7.70;;;;;;;14.03;83.38;102016.25;5131424;27;20055;-84
2022/07/05 04:42:39;;;;;;;12.27;7.83;;;;;;;14.06;83.17;102009.53;5113145;28;20273;-85
2022/07/05 04:45:06;;;;;;;11.45;7.80;;;;;;;14.13;82.90;102008.47;5130125;28;20042;-85
2022/07/05 04:47:31;;;;;;;11.30;7.35;;;;;;;14.27;82.82;102011.19;5131148;27;20032;-85
2022/07/05 04:49:57;;;;;;;10.40;7.90;;;;;;;14.35;82.51;102005.50;5131153;28;20368;-85
2022/07/05 04:52:24;;;;;;;9.80;7.35;;;;;;;14.47;82.33;102006.53;5095814;28;20493;-85
2022/07/05 04:54:50;;;;;;;10.10;7.45;;;;;;;14.62;81.52;102013.69;5130379;28;20032;-85
2022/07/05 04:57:15;;;;;;;10.13;7.10;;;;;;;14.76;81.27;102009.03;5129739;28;20030;-85
2022/07/05 04:59:40;;;;;;;9.90;7.43;;;;;;;14.78;80.00;102007.75;5129681;27;20125;-85
2022/07/05 05:02:06;;;;;;;9.93;7.77;;;;;;;14.85;79.28;102011.31;5112994;28;20036;-85
2022/07/05 05:04:31;;;;;;;9.88;7.50;;;;;;;14.94;79.88;102013.78;5112526;28;20035;-85
2022/07/05 05:06:57;;;;;;;11.97;7.90;;;;;;;15.02;79.64;102014.38;5129317;28;20043;-85
2022/07/05 05:09:22;;;;;;;17.23;8.23;;;;;;;15.11;78.96;102012.25;5130944;27;20031;-85
2022/07/05 05:11:48;;;;;;;12.30;8.50;;;;;;;15.22;78.73;102011.56;5087154;28;20092;-85
2022/07/05 05:14:13;;;;;;;9.32;7.82;;;;;;;15.16;77.57;102009.72;5098756;28;20386;-85
2022/07/05 05:16:39;;;;;;;10.80;7.93;;;;;;;15.21;78.12;102006.31;5115750;28;20372;-85
2022/07/05 05:19:04;;;;;;;11.35;7.40;;;;;;;15.33;77.78;102014.66;5116834;27;20032;-85
2022/07/05 05:21:30;;;;;;;11.30;7.57;;;;;;;15.38;77.35;102007.50;5115768;28;20395;-85
2022/07/05 05:23:55;;;;;;;9.90;7.73;;;;;;;15.54;77.30;102013.47;5098441;28;20065;-85
2022/07/05 05:26:21;;;;;;;11.13;7.70;;;;;;;15.60;77.00;102018.06;5115503;28;20034;-85
2022/07/05 05:28:46;;;;;;;10.70;8.07;;;;;;;15.66;76.27;102025.38;5116850;28;20031;-85
2022/07/05 05:31:11;;;;;;;10.20;8.37;;;;;;;15.65;75.81;102034.69;5115446;28;20035;-85
2022/07/05 05:33:40;;;;;;;12.40;7.80;;;;;;;15.65;75.16;102026.47;5115378;28;20490;-89
2022/07/05 05:36:06;;;;;;;13.40;8.38;;;;;;;15.66;75.32;102036.31;5116885;28;20474;-88
2022/07/05 05:38:31;;;;;;;12.13;8.70;;;;;;;15.69;76.31;102041.34;5098314;28;20122;-89
2022/07/05 05:40:57;;;;;;;10.97;8.03;;;;;;;15.75;75.50;102045.97;5116702;28;20115;-87
2022/07/05 05:43:22;;;;;;;12.63;8.40;;;;;;;15.85;75.65;102040.03;5098238;28;20039;-89
2022/07/05 05:45:48;;;;;;;11.70;8.90;;;;;;;15.96;75.64;102046.69;5115332;28;20289;-89
2022/07/05 05:48:13;;;;;;;12.77;9.40;;;;;;;16.04;74.77;102040.09;5114783;28;20035;-87
2022/07/05 05:50:39;;;;;;;11.50;8.67;;;;;;;16.10;74.96;102041.94;5098012;28;20027;-88
2022/07/05 05:53:05;;;;;;;14.35;9.43;;;;;;;16.24;74.99;102046.25;5097935;28;20032;-89
2022/07/05 05:55:31;;;;;;;13.60;9.87;;;;;;;16.40;73.38;102046.72;5114943;28;20042;-89
2022/07/05 05:58:09;;;;;;;11.48;8.75;;;;;;;16.48;72.62;102047.28;5115364;28;20080;-88
2022/07/05 06:00:35;;;;;;;13.57;9.32;;;;;;;16.56;72.19;102057.09;5114979;28;20443;-87
2022/07/05 06:03:00;;;;;;;11.20;8.60;;;;;;;16.57;72.58;102057.97;5114873;28;20038;-87
2022/07/05 06:05:28;;;;;;;11.33;9.23;;;;;;;16.55;73.27;102051.84;5114382;28;20051;-88
2022/07/05 06:07:57;;;;;;;13.38;8.43;;;;;;;16.65;73.02;102053.03;5114318;28;20039;-87
2022/07/05 06:10:41;;;;;;;13.27;9.25;;;;;;;16.71;72.82;102051.28;5114345;28;20046;-88
2022/07/05 06:13:12;;;;;;;10.90;9.35;;;;;;;16.74;71.44;102049.97;5113186;28;20032;-88
2022/07/05 06:15:39;;;;;;;13.47;8.90;;;;;;;16.78;71.78;102059.41;5114395;28;20066;-89
2022/07/05 06:18:06;;;;;;;12.63;9.23;;;;;;;16.76;71.47;102058.81;5114060;28;20045;-87
2022/07/05 06:20:33;;;;;;;12.55;9.23;;;;;;;16.80;72.03;102057.28;5114080;28;20023;-88
2022/07/05 06:23:00;;;;;;;10.73;8.25;;;;;;;16.90;70.64;102063.09;5114793;28;20038;-89
2022/07/05 06:25:26;;;;;;;13.27;8.75;;;;;;;16.96;70.89;102075.06;5114063;28;20031;-88
2022/07/05 06:27:57;;;;;;;10.53;8.67;;;;;;;16.96;70.86;102066.84;5097355;28;20035;-88
2022/07/05 06:30:25;;;;;;;12.82;9.00;;;;;;;17.00;70.02;102059.84;5115286;28;20471;-88
2022/07/05 06:32:51;;;;;;;10.27;8.88;;;;;;;17.15;70.80;102073.16;5113904;28;20028;-87
2022/07/05 06:35:18;;;;;;;14.05;8.52;;;;;;;17.32;70.45;102065.97;5113924;28;20102;-89
2022/07/05 06:37:53;;;;;;;14.30;8.40;;;;;;;17.50;69.35;102076.06;5113908;28;20475;-89
2022/07/05 06:40:24;;;;;;;11.38;8.40;;;;;;;17.52;68.80;102073.09;5114178;28;20020;-89
2022/07/05 06:42:51;;;;;;;15.25;9.20;;;;;;;17.61;68.32;102068.97;5114137;28;20019;-89
2022/07/05 06:45:17;;;;;;;12.35;8.48;;;;;;;17.75;68.30;102069.59;5114096;28;20032;-88
2022/07/05 06:47:42;;;;;;;13.93;8.10;;;;;;;17.78;67.89;102066.38;5113505;28;20023;-87
2022/07/05 06:50:10;;;;;;;9.60;8.53;;;;;;;17.77;68.82;102072.94;5113431;28;20027;-85
2022/07/05 06:52:39;;;;;;;13.52;8.88;;;;;;;17.78;69.29;102079.28;5113321;28;20050;-85
2022/07/05 06:55:05;;;;;;;12.30;8.18;;;;;;;17.78;69.16;102073.78;5114595;28;20517;-85
2022/07/05 06:57:30;;;;;;;10.90;7.65;;;;;;;17.65;69.18;102083.88;5114587;28;20055;-85
2022/07/05 06:59:56;;;;;;;11.17;8.30;;;;;;;17.43;69.75;102079.97;5113642;28;20114;-84
2022/07/05 07:02:22;;;;;;;12.15;8.40;;;;;;;17.25;71.10;102075.38;5113719;28;20039;-85
2022/07/05 07:04:49;;;;;;;12.60;8.87;;;;;;;17.22;71.61;102082.13;5096639;28;20032;-85
2022/07/05 07:10:00;;;;;;;13.07;8.20;;;;;;;17.72;70.48;102081.06;5114818;28;20503;-85
2022/07/05 07:12:26;;;;;;;12.47;7.23;;;;;;;18.08;69.74;102079.25;5113347;28;20036;-85
2022/07/05 07:14:51;;;;;;;10.52;7.30;;;;;;;18.32;68.89;102079.28;5113262;28;20118;-86
2022/07/05 07:17:17;;;;;;;9.43;6.72;;;;;;;18.60;68.21;102084.06;5113377;28;20127;-86
2022/07/05 07:19:42;;;;;;;9.63;6.97;;;;;;;18.70;66.90;102081.56;5113037;28;20031;-86
2022/07/05 07:22:08;;;;;;;12.70;7.17;;;;;;;18.86;66.68;102081.94;5113386;28;20080;-85
2022/07/05 07:24:33;;;;;;;13.60;6.43;;;;;;;19.16;65.96;102078.19;5096421;28;20034;-86
2022/07/05 07:27:06;;;;;;;13.17;6.30;;;;;;;19.48;65.85;102080.47;5113182;28;20387;-85
2022/07/05 07:29:33;;;;;;;10.48;5.68;;;;;;;19.63;64.63;102087.13;5114611;28;20476;-85
2022/07/05 07:31:59;;;;;;;13.48;6.28;;;;;;;19.60;64.66;102093.09;5095617;28;20080;-85
2022/07/05 07:34:25;;;;;;;12.55;6.22;;;;;;;19.72;65.13;102090.28;5114190;28;20031;-86
2022/07/05 07:36:51;;;;;;;15.32;6.93;;;;;;;19.84;65.02;102092.19;5096229;28;20055;-86
2022/07/05 07:39:17;;;;;;;13.13;6.80;;;;;;;19.94;64.19;102095.13;5096025;28;20125;-85
2022/07/05 07:41:42;;;;;;;10.40;6.05;;;;;;;19.83;64.45;102102.38;5113081;28;20047;-85
2022/07/05 07:44:08;;;;;;;15.07;6.20;;;;;;;19.80;64.52;102102.88;5079208;28;20027;-85
2022/07/05 07:46:33;;;;;;;11.60;6.67;;;;;;;19.93;65.33;102104.47;5079272;28;20027;-84
2022/07/05 07:48:59;;;;;;;14.20;6.32;;;;;;;20.04;64.54;102095.31;5113496;28;20027;-84
2022/07/05 07:51:25;;;;;;;13.70;7.10;;;;;;;20.06;64.52;102097.81;5113188;28;20044;-83
2022/07/05 07:53:50;;;;;;;11.80;6.23;;;;;;;20.12;64.29;102097.66;5112777;28;20034;-84
2022/07/05 07:56:16;;;;;;;14.30;6.40;;;;;;;20.14;64.28;102100.16;5113307;28;20034;-84
2022/07/05 07:58:44;;;;;;;13.03;6.67;;;;;;;20.05;64.09;102094.22;5095914;28;20031;-83
2022/07/05 08:01:13;;;;;;;15.23;7.43;;;;;;;20.12;64.48;102105.06;5113990;28;20088;-84
2022/07/05 08:03:40;;;;;;;13.43;6.45;;;;;;;20.20;63.26;102104.66;5114065;28;20024;-84
2022/07/05 08:06:13;;;;;;;12.40;6.85;;;;;;;20.36;64.41;102096.63;5123977;28;20094;-84
2022/07/05 08:08:40;;;;;;;11.68;6.43;;;;;;;20.67;62.71;102106.28;5100342;28;20062;-84
2022/07/05 08:11:06;;;;;;;17.67;7.67;;;;;;;20.70;61.87;102102.16;5099316;28;20467;-83
2022/07/05 08:13:32;;;;;;;17.65;8.10;;;;;;;20.64;61.99;102104.00;5115998;28;20058;-84
2022/07/05 08:15:57;;;;;;;14.03;7.30;;;;;;;20.65;62.03;102102.88;5116063;28;20039;-84
2022/07/05 08:23:51;;;;;;;23.52;9.00;;;;;;;20.66;62.67;102108.16;5134566;28;20046;-83
2022/07/05 08:26:16;;;;;;;16.70;8.90;;;;;;;20.76;62.62;102121.28;5115849;28;20456;-83
2022/07/05 08:28:42;;;;;;;22.70;9.07;;;;;;;20.92;61.51;102114.06;5115947;28;20063;-83
2022/07/05 08:31:07;;;;;;;14.37;8.80;;;;;;;21.07;61.17;102099.66;5099040;28;20035;-84
2022/07/05 08:33:32;;;;;;;20.97;9.17;;;;;;;20.91;60.71;102111.56;5099324;28;20031;-83
2022/07/05 08:35:58;;;;;;;13.65;7.88;;;;;;;21.00;62.58;102101.75;5134151;28;20027;-83
2022/07/05 08:38:23;;;;;;;18.93;9.30;;;;;;;21.17;61.37;102098.94;5116220;28;20061;-84
2022/07/05 08:40:51;;;;;;;14.97;8.57;;;;;;;21.43;60.29;102102.84;5099041;28;20024;-84
2022/07/05 08:43:18;;;;;;;12.68;7.60;;;;;;;21.38;59.96;102100.03;5115839;28;20119;-83
2022/07/05 08:45:44;;;;;;;12.40;7.50;;;;;;;21.45;59.27;102102.56;5098876;28;20050;-85
2022/07/05 08:48:10;;;;;;;12.97;6.47;;;;;;;21.42;58.62;102103.94;5119177;27;20459;-84
2022/07/05 08:50:40;;;;;;;14.32;7.88;;;;;;;21.51;58.56;102104.34;5102719;27;20088;-84
2022/07/05 08:53:06;;;;;;;14.05;7.28;;;;;;;21.36;58.63;102097.53;5138085;27;20035;-84
2022/07/05 08:55:34;;;;;;;14.73;6.95;;;;;;;20.99;60.10;102094.56;5119430;27;20060;-84
2022/07/05 08:58:00;;;;;;;13.02;7.30;;;;;;;20.93;60.32;102092.81;5138248;27;20092;-84
2022/07/05 09:00:26;;;;;;;14.23;7.67;;;;;;;20.83;59.43;102096.28;5119310;27;20027;-83
2022/07/05 09:02:53;;;;;;;18.38;7.28;;;;;;;20.85;60.74;102097.69;5137464;27;20126;-84
2022/07/05 09:05:20;;;;;;;12.68;6.43;;;;;;;21.15;60.36;102095.59;5118966;27;20112;-84
2022/07/05 09:07:58;;;;;;;10.30;4.53;;;;;;;21.27;57.36;102099.06;5119508;27;20031;-84
2022/07/05 09:10:26;;;;;;;14.55;5.40;;;;;;;21.58;55.49;102110.50;5137404;27;20375;-83
2022/07/05 09:12:52;;;;;;;13.60;6.28;;;;;;;21.95;55.46;102095.94;5102259;27;20379;-84
2022/07/05 09:15:18;;;;;;;12.63;5.90;;;;;;;22.14;53.04;102104.69;5119061;27;20036;-83
2022/07/05 09:17:44;;;;;;;11.68;6.38;;;;;;;22.23;54.54;102102.28;5118478;27;20040;-84
2022/07/05 09:20:18;;;;;;;18.15;6.00;;;;;;;22.17;53.64;102106.09;5118818;27;20095;-84
2022/07/05 09:22:52;;;;;;;13.60;5.07;;;;;;;21.89;53.50;102099.75;5118853;27;20412;-84
2022/07/05 09:25:31;;;;;;;6.68;4.40;;;;;;;21.78;53.81;102107.13;5137019;27;20117;-84
2022/07/05 09:28:02;;;;;;;12.18;5.50;;;;;;;21.71;52.52;102109.25;5118863;27;20485;-83
2022/07/05 09:30:30;;;;;;;9.88;5.60;;;;;;;21.75;53.55;102099.34;5118946;27;20379;-83
2022/07/05 09:33:07;;;;;;;13.60;5.85;;;;;;;21.77;54.60;102096.34;5137186;27;20068;-83
2022/07/05 09:35:35;;;;;;;10.73;5.80;;;;;;;21.57;54.50;102105.22;5137237;27;20027;-84
2022/07/05 09:38:03;;;;;;;9.05;5.60;;;;;;;21.63;54.35;102107.78;5137253;27;20035;-84
2022/07/05 09:40:30;;;;;;;9.77;5.90;;;;;;;21.69;54.12;102101.22;5118410;27;20032;-84
2022/07/05 09:43:22;;;;;;;14.75;6.38;;;;;;;22.05;53.55;102095.22;5118886;27;20069;-84
2022/07/05 09:46:01;;;;;;;7.60;4.18;;;;;;;22.29;48.47;102092.09;5118419;27;20489;-84
2022/07/05 09:48:28;;;;;;;6.10;4.27;;;;;;;22.71;46.42;102081.06;5136643;27;20027;-84
2022/07/05 09:51:11;;;;;;;6.13;4.07;;;;;;;23.15;47.08;102085.50;5118255;27;20034;-84
2022/07/05 09:54:09;;;;;;;7.22;4.63;;;;;;;23.33;45.07;102092.47;5096440;27;20134;-83
2022/07/05 09:56:48;;;;;;;8.95;4.00;;;;;;;22.86;46.49;102083.09;5071865;27;20491;-83
2022/07/05 09:59:15;;;;;;;9.27;3.47;;;;;;;22.54;47.57;102078.50;5098286;28;20076;-86
2022/07/05 10:01:41;;;;;;;10.30;3.60;;;;;;;22.57;47.97;102074.34;5109006;27;20088;-87
2022/07/05 10:04:08;;;;;;;12.57;3.85;;;;;;;22.71;46.32;102085.78;5092714;27;20480;-86
2022/07/05 10:06:33;;;;;;;9.20;2.90;;;;;;;22.78;45.24;102083.63;5121407;27;20058;-85
2022/07/05 10:08:59;;;;;;;8.75;3.63;;;;;;;22.91;46.70;102082.28;5114437;28;20463;-86
2022/07/05 10:11:25;;;;;;;7.30;4.50;;;;;;;22.94;46.49;102079.81;5096719;28;20095;-85
2022/07/05 10:13:52;;;;;;;11.73;4.30;;;;;;;22.93;45.73;102093.94;5097589;28;20487;-85
2022/07/05 10:16:19;;;;;;;9.38;3.75;;;;;;;22.99;45.90;102097.53;5080617;28;20054;-85
2022/07/05 10:18:52;;;;;;;5.50;3.57;;;;;;;23.08;45.71;102090.41;5097272;28;20070;-84
2022/07/05 10:21:19;;;;;;;7.43;3.88;;;;;;;23.09;46.24;102092.03;5097542;28;20019;-85
2022/07/05 10:23:47;;;;;;;8.40;5.30;;;;;;;22.95;45.56;102094.50;5097633;28;20032;-84
2022/07/05 10:26:14;;;;;;;10.30;4.75;;;;;;;22.98;44.26;102096.72;5097242;28;20046;-84
2022/07/05 10:28:41;;;;;;;10.80;4.60;;;;;;;23.32;45.39;102084.44;5098035;28;20088;-83
2022/07/05 10:31:10;;;;;;;7.27;3.90;;;;;;;23.95;43.31;102084.31;5097265;28;20383;-83
2022/07/05 10:33:36;;;;;;;6.25;3.72;;;;;;;24.21;42.89;102089.84;5097733;28;20383;-83
2022/07/05 10:36:03;;;;;;;7.85;2.80;;;;;;;24.35;39.90;102086.22;5097008;28;20031;-83
2022/07/05 10:38:29;;;;;;;6.20;2.20;;;;;;;24.09;40.73;102095.69;5096846;28;20032;-83
2022/07/05 10:40:59;;;;;;;7.40;3.22;;;;;;;23.67;41.79;102085.66;5097747;28;20115;-83
2022/07/05 10:43:25;;;;;;;5.13;2.80;;;;;;;23.69;43.70;102086.19;5096861;28;20024;-83
2022/07/05 10:45:51;;;;;;;7.07;2.90;;;;;;;24.12;43.65;102081.25;5097294;28;20040;-85
2022/07/05 10:48:25;;;;;;;7.22;3.08;;;;;;;24.52;42.33;102082.31;5096450;28;20062;-85
2022/07/05 10:50:54;;;;;;;6.43;3.20;;;;;;;25.14;42.01;102082.16;5096868;28;20076;-85
2022/07/05 10:53:32;;;;;;;10.02;3.60;;;;;;;25.78;40.82;102076.81;5096826;28;20024;-85
2022/07/05 10:55:59;;;;;;;9.38;3.20;;;;;;;26.34;37.91;102076.41;5096863;28;20126;-85
2022/07/05 10:58:29;;;;;;;5.70;2.78;;;;;;;26.86;38.19;102078.66;5096559;28;20020;-83
2022/07/05 11:01:20;;;;;;;5.60;2.67;;;;;;;27.49;36.31;102083.16;5115004;28;20035;-83
2022/07/05 11:04:26;;;;;;;9.50;3.27;;;;;;;27.12;37.21;102099.50;5096293;28;20032;-83
2022/07/05 11:06:52;;;;;;;4.68;2.80;;;;;;;26.59;35.10;102082.84;5085295;28;20047;-84
2022/07/05 11:09:19;;;;;;;4.32;2.53;;;;;;;26.02;36.11;102082.53;5095830;28;20475;-83
2022/07/05 11:12:06;;;;;;;8.80;2.20;;;;;;;25.59;37.44;102101.72;5079482;28;20414;-83
2022/07/05 11:14:34;;;;;;;6.70;2.53;;;;;;;25.19;37.52;102093.28;5114760;28;20032;-83
2022/07/05 11:17:09;;;;;;;4.57;2.63;;;;;;;25.33;38.76;102097.09;5114577;28;20077;-84
2022/07/05 11:19:55;;;;;;;2.80;2.05;;;;;;;25.07;38.10;102103.84;5095887;28;20463;-83
2022/07/05 11:22:20;;;;;;;4.90;2.92;;;;;;;25.06;38.87;102091.94;5095993;28;20031;-84
2022/07/05 11:24:46;;;;;;;4.30;2.30;;;;;;;24.85;39.42;102097.53;5096754;28;20039;-83
2022/07/05 11:27:12;;;;;;;7.55;2.72;;;;;;;24.51;39.43;102097.31;5114414;28;20027;-82
2022/07/05 11:30:07;;;;;;;4.33;2.70;;;;;;;24.13;40.48;102094.84;5095997;28;20489;-84
2022/07/05 11:32:37;;;;;;;6.95;2.80;;;;;;;24.01;40.94;102088.75;5110983;28;20383;-83